createdAt,value
2022-12-15T00:00:31.145Z,5.25
2022-12-15T00:02:31.219Z,5.46
2022-12-15T00:04:31.270Z,5.51
2022-12-15T00:07:08.394Z,5.47
2022-12-15T00:09:12.722Z,5.47
2022-12-15T00:11:08.347Z,5.58
2022-12-15T00:13:08.361Z,5.53
2022-12-15T00:15:08.470Z,5.51
2022-12-15T00:17:08.322Z,5.59
2022-12-15T00:19:08.338Z,5.52
2022-12-15T00:22:32.006Z,5.71
2022-12-15T00:24:31.870Z,5.73
2022-12-15T00:26:32.071Z,5.83
2022-12-15T00:28:32.124Z,5.72
2022-12-15T00:30:31.918Z,5.6
2022-12-15T00:32:31.807Z,5.85
2022-12-15T00:34:31.819Z,5.7
2022-12-15T00:37:55.033Z,6.13
2022-12-15T00:39:55.034Z,6.2
2022-12-15T00:41:55.027Z,6.25
2022-12-15T00:43:55.025Z,6.18
2022-12-15T00:45:55.218Z,6.34
2022-12-15T00:47:55.024Z,6.46
2022-12-15T00:49:55.034Z,6.17
2022-12-15T00:52:40.104Z,6.43
2022-12-15T00:54:40.094Z,6.46
2022-12-15T00:56:40.096Z,6.44
2022-12-15T00:58:40.093Z,6.6
2022-12-15T01:00:40.174Z,6.69
2022-12-15T01:02:40.389Z,6.54
2022-12-15T01:04:40.094Z,6.68
2022-12-15T01:08:04.350Z,6.77
2022-12-15T01:10:04.342Z,6.87
2022-12-15T01:12:04.330Z,6.58
2022-12-15T01:14:04.616Z,6.77
2022-12-15T01:16:04.361Z,6.76
2022-12-15T01:18:04.354Z,6.76
2022-12-15T01:20:04.405Z,6.89
2022-12-15T01:23:12.349Z,6.8
2022-12-15T01:25:12.347Z,6.77
2022-12-15T01:27:12.337Z,6.66
2022-12-15T01:29:12.353Z,6.67
2022-12-15T01:31:12.483Z,6.54
2022-12-15T01:33:12.372Z,6.56
2022-12-15T01:35:12.375Z,6.7
2022-12-15T01:38:24.583Z,6.66
2022-12-15T01:40:24.514Z,6.73
2022-12-15T01:42:24.533Z,6.62
2022-12-15T01:44:24.667Z,6.51
2022-12-15T01:46:24.551Z,6.52
2022-12-15T01:48:24.545Z,6.44
2022-12-15T01:50:24.559Z,6.51
2022-12-15T01:53:43.438Z,6.46
2022-12-15T01:55:43.450Z,6.54
2022-12-15T01:57:43.416Z,6.63
2022-12-15T01:59:43.421Z,6.69
2022-12-15T02:01:43.642Z,6.62
2022-12-15T02:03:43.444Z,6.81
2022-12-15T02:05:43.435Z,6.6
2022-12-15T02:08:24.182Z,6.5
2022-12-15T02:10:24.236Z,6.53
2022-12-15T02:12:24.195Z,6.53
2022-12-15T02:14:24.210Z,6.47
2022-12-15T02:16:24.259Z,6.45
2022-12-15T02:18:24.234Z,6.47
2022-12-15T02:20:24.266Z,6.5
2022-12-15T02:23:24.199Z,6.42
2022-12-15T02:25:24.192Z,6.35
2022-12-15T02:27:24.187Z,6.12
2022-12-15T02:29:24.172Z,6.17
2022-12-15T02:31:24.211Z,6.21
2022-12-15T02:33:24.192Z,6.28
2022-12-15T02:35:24.180Z,6.25
2022-12-15T02:37:24.316Z,6.23
2022-12-15T02:39:00.570Z,6.27
2022-12-15T02:41:00.694Z,6.39
2022-12-15T02:43:00.589Z,6.48
2022-12-15T02:45:00.574Z,6.37
2022-12-15T02:47:00.572Z,6.19
2022-12-15T02:49:00.578Z,6.3
2022-12-15T02:51:00.666Z,6.35
2022-12-15T02:54:02.197Z,6.34
2022-12-15T02:56:02.180Z,6.43
2022-12-15T02:58:02.209Z,6.41
2022-12-15T03:00:02.165Z,6.49
2022-12-15T03:02:02.466Z,6.43
2022-12-15T03:04:02.192Z,6.49
2022-12-15T03:06:02.168Z,6.43
2022-12-15T03:09:13.693Z,6.48
2022-12-15T03:11:13.608Z,6.6
2022-12-15T03:13:13.625Z,6.75
2022-12-15T03:15:13.619Z,6.84
2022-12-15T03:17:13.605Z,6.73
2022-12-15T03:19:13.616Z,6.64
2022-12-15T03:21:13.616Z,6.51
2022-12-15T03:24:52.425Z,6.48
2022-12-15T03:26:52.288Z,6.5
2022-12-15T03:28:52.311Z,6.41
2022-12-15T03:30:52.316Z,6.58
2022-12-15T03:32:52.280Z,6.51
2022-12-15T03:34:52.279Z,6.52
2022-12-15T03:36:52.289Z,6.56
2022-12-15T03:39:58.610Z,6.37
2022-12-15T03:41:58.528Z,6.7
2022-12-15T03:43:58.512Z,6.67
2022-12-15T03:45:58.614Z,6.73
2022-12-15T03:47:58.527Z,6.82
2022-12-15T03:49:58.544Z,6.79
2022-12-15T03:51:58.527Z,6.88
2022-12-15T03:55:00.944Z,6.89
2022-12-15T03:57:00.940Z,6.94
2022-12-15T03:59:00.905Z,6.94
2022-12-15T04:01:00.925Z,7.11
2022-12-15T04:03:01.037Z,7.05
2022-12-15T04:05:00.959Z,7
2022-12-15T04:07:00.909Z,7.12
2022-12-15T04:10:19.342Z,7.2
2022-12-15T04:12:19.311Z,7.07
2022-12-15T04:14:19.316Z,7.33
2022-12-15T04:16:20.228Z,7.53
2022-12-15T04:18:19.306Z,7.52
2022-12-15T04:20:19.288Z,7.62
2022-12-15T04:22:19.297Z,7.8
2022-12-15T04:25:10.314Z,7.85
2022-12-15T04:27:10.348Z,7.24
2022-12-15T04:29:10.325Z,7.56
2022-12-15T04:31:10.414Z,7.76
2022-12-15T04:33:10.298Z,7.38
2022-12-15T04:35:10.290Z,7.71
2022-12-15T04:37:10.319Z,7.87
2022-12-15T04:40:08.981Z,7.95
2022-12-15T04:42:08.981Z,7.8
2022-12-15T04:44:09.059Z,8.08
2022-12-15T04:46:09.298Z,8.13
2022-12-15T04:48:09.204Z,8.16
2022-12-15T04:50:09.264Z,7.85
2022-12-15T04:52:09.337Z,8.03
2022-12-15T04:55:11.814Z,8.15
2022-12-15T04:57:11.881Z,8.13
2022-12-15T04:59:11.889Z,8.08
2022-12-15T05:01:11.871Z,8.04
2022-12-15T05:03:16.627Z,7.87
2022-12-15T05:05:11.805Z,7.98
2022-12-15T05:07:11.858Z,7.8
2022-12-15T05:10:28.707Z,7.62
2022-12-15T05:12:28.703Z,7.79
2022-12-15T05:14:28.758Z,7.42
2022-12-15T05:16:28.750Z,7.53
2022-12-15T05:18:28.701Z,7.21
2022-12-15T05:20:28.709Z,7.6
2022-12-15T05:22:28.731Z,7.68
2022-12-15T05:25:24.409Z,7.25
2022-12-15T05:27:24.414Z,7.5
2022-12-15T05:29:24.463Z,7.17
2022-12-15T05:31:24.473Z,7.35
2022-12-15T05:33:24.447Z,7.4
2022-12-15T05:35:24.398Z,7.19
2022-12-15T05:37:24.410Z,7.28
2022-12-15T05:39:24.476Z,7.46
2022-12-15T05:41:00.838Z,7.69
2022-12-15T05:43:00.969Z,7.06
2022-12-15T05:45:00.826Z,7.11
2022-12-15T05:47:00.829Z,7.1
2022-12-15T05:49:01.020Z,7.26
2022-12-15T05:51:00.855Z,7.61
2022-12-15T05:53:00.879Z,7.77
2022-12-15T05:56:22.525Z,8.08
2022-12-15T05:58:22.513Z,8.16
2022-12-15T06:00:22.509Z,8.04
2022-12-15T06:02:22.553Z,8.28
2022-12-15T06:04:22.572Z,8.14
2022-12-15T06:06:22.515Z,7.65
2022-12-15T06:08:22.495Z,8.04
2022-12-15T06:11:02.376Z,8.11
2022-12-15T06:13:02.391Z,7.83
2022-12-15T06:15:02.375Z,7.83
2022-12-15T06:17:02.552Z,8.17
2022-12-15T06:19:02.387Z,8.17
2022-12-15T06:21:02.383Z,8.36
2022-12-15T06:23:02.405Z,7.91
2022-12-15T06:26:01.021Z,8.22
2022-12-15T06:28:01.934Z,8.41
2022-12-15T06:30:01.062Z,8.63
2022-12-15T06:32:00.978Z,8.69
2022-12-15T06:34:02.228Z,8.56
2022-12-15T06:36:00.967Z,8.66
2022-12-15T06:38:01.065Z,8.47
2022-12-15T06:40:01.036Z,8.64
2022-12-15T06:41:53.676Z,8.36
2022-12-15T06:43:53.631Z,8.36
2022-12-15T06:45:53.612Z,8.33
2022-12-15T06:47:57.919Z,7.12
2022-12-15T06:49:53.618Z,7.59
2022-12-15T06:51:53.602Z,7.39
2022-12-15T06:53:54.007Z,7.63
2022-12-15T06:56:24.379Z,7.29
2022-12-15T06:58:21.786Z,7.23
2022-12-15T07:00:21.792Z,7.35
2022-12-15T07:02:26.980Z,7.77
2022-12-15T07:04:21.851Z,7.95
2022-12-15T07:06:21.762Z,8.1
2022-12-15T07:08:24.439Z,8.31
2022-12-15T07:10:21.805Z,8.28
2022-12-15T07:12:13.682Z,8.53
2022-12-15T07:14:13.649Z,8.59
2022-12-15T07:16:13.810Z,8.6
2022-12-15T07:18:13.740Z,8.79
2022-12-15T07:20:13.654Z,9.01
2022-12-15T07:22:13.648Z,9.06
2022-12-15T07:24:13.619Z,8.94
2022-12-15T07:26:34.618Z,9
2022-12-15T07:28:34.802Z,8.92
2022-12-15T07:30:38.574Z,9.09
2022-12-15T07:32:34.603Z,9.35
2022-12-15T07:34:34.548Z,9.5
2022-12-15T07:36:34.603Z,9.11
2022-12-15T07:38:34.537Z,9.25
2022-12-15T07:40:34.531Z,9.11
2022-12-15T07:42:38.198Z,9.36
2022-12-15T07:44:38.163Z,9.61
2022-12-15T07:46:38.285Z,9.4
2022-12-15T07:48:38.170Z,9.5
2022-12-15T07:50:38.154Z,9.84
2022-12-15T07:52:38.452Z,10.04
2022-12-15T07:54:38.142Z,10.19
2022-12-15T07:57:26.102Z,10.02
2022-12-15T07:59:26.087Z,10.13
2022-12-15T08:01:26.306Z,9.93
2022-12-15T08:03:26.184Z,10.16
2022-12-15T08:05:26.072Z,10.32
2022-12-15T08:07:26.088Z,10.52
2022-12-15T08:09:26.058Z,10.56
2022-12-15T08:12:25.238Z,10.23
2022-12-15T08:14:25.508Z,10.29
2022-12-15T08:16:25.335Z,10.37
2022-12-15T08:18:25.252Z,10.23
2022-12-15T08:20:25.219Z,10.48
2022-12-15T08:22:25.252Z,10.37
2022-12-15T08:24:25.193Z,10.5
2022-12-15T08:27:42.592Z,10.3
2022-12-15T08:29:51.294Z,10.44
2022-12-15T08:31:42.780Z,10.4
2022-12-15T08:33:42.574Z,10.62
2022-12-15T08:35:56.091Z,10.57
2022-12-15T08:37:42.581Z,10.65
2022-12-15T08:39:42.534Z,10.56
2022-12-15T08:42:30.990Z,10.69
2022-12-15T08:44:30.982Z,10.84
2022-12-15T08:46:31.053Z,10.96
2022-12-15T08:48:31.011Z,11.25
2022-12-15T08:50:31.055Z,11.21
2022-12-15T08:52:31.187Z,11
2022-12-15T08:54:31.110Z,10.99
2022-12-15T08:57:34.527Z,10.98
2022-12-15T08:59:34.495Z,11.08
2022-12-15T09:01:34.562Z,10.96
2022-12-15T09:03:34.909Z,10.9
2022-12-15T09:05:34.483Z,10.48
2022-12-15T09:07:34.513Z,10.82
2022-12-15T09:09:34.533Z,11.22
2022-12-15T09:11:34.518Z,11.18
2022-12-15T09:13:12.090Z,11.13
2022-12-15T09:15:12.089Z,11.13
2022-12-15T09:17:12.212Z,11.22
2022-12-15T09:19:12.091Z,11.33
2022-12-15T09:21:12.080Z,11.65
2022-12-15T09:23:12.094Z,11.58
2022-12-15T09:25:12.075Z,11.63
2022-12-15T09:28:20.775Z,11.53
2022-12-15T09:30:20.712Z,11.69
2022-12-15T09:32:20.708Z,11.55
2022-12-15T09:34:20.754Z,11.22
2022-12-15T09:36:20.715Z,11.37
2022-12-15T09:38:20.720Z,11.51
2022-12-15T09:40:20.713Z,11.44
2022-12-15T09:43:33.766Z,11.79
2022-12-15T09:45:16.530Z,12.16
2022-12-15T09:47:16.542Z,11.92
2022-12-15T09:49:16.539Z,12.14
2022-12-15T09:51:16.536Z,12.15
2022-12-15T09:53:45.358Z,11.99
2022-12-15T09:55:16.562Z,12.27
2022-12-15T09:58:13.764Z,12.66
2022-12-15T10:00:13.755Z,12.64
2022-12-15T10:02:14.023Z,12.65
2022-12-15T10:04:13.769Z,12.32
2022-12-15T10:06:16.411Z,11.94
2022-12-15T10:08:13.794Z,12.28
2022-12-15T10:10:13.737Z,12.28
2022-12-15T10:12:13.735Z,12.46
2022-12-15T10:13:36.925Z,12.73
2022-12-15T10:15:36.897Z,12.65
2022-12-15T10:17:36.882Z,12.59
2022-12-15T10:19:36.940Z,12.64
2022-12-15T10:21:36.872Z,12.62
2022-12-15T10:23:37.079Z,12.45
2022-12-15T10:25:36.911Z,12.51
2022-12-15T10:29:16.595Z,12.26
2022-12-15T10:31:16.679Z,11.92
2022-12-15T10:33:16.597Z,12.33
2022-12-15T10:35:16.661Z,12.73
2022-12-15T10:37:16.706Z,12.02
2022-12-15T10:39:17.780Z,12.54
2022-12-15T10:41:16.644Z,12.18
2022-12-15T10:44:05.899Z,11.97
2022-12-15T10:46:06.057Z,11.87
2022-12-15T10:48:06.000Z,11.72
2022-12-15T10:50:05.898Z,11.75
2022-12-15T10:52:05.929Z,12.09
2022-12-15T10:54:05.891Z,12.4
2022-12-15T10:56:05.913Z,12.68
2022-12-15T10:58:50.113Z,13.21
2022-12-15T11:00:50.710Z,13.2
2022-12-15T11:02:49.272Z,13.27
2022-12-15T11:04:49.031Z,13.5
2022-12-15T11:06:49.017Z,13.43
2022-12-15T11:08:49.052Z,13.19
2022-12-15T11:10:49.922Z,12.96
2022-12-15T11:12:50.569Z,13.38
2022-12-15T11:14:55.011Z,13.38
2022-12-15T11:18:54.959Z,13.83
2022-12-15T11:20:55.006Z,13.87
2022-12-15T11:22:54.927Z,13.64
2022-12-15T11:24:55.007Z,13.87
2022-12-15T11:26:54.940Z,14.12
2022-12-15T11:29:53.594Z,14.41
2022-12-15T11:31:53.515Z,14.01
2022-12-15T11:33:53.567Z,14.06
2022-12-15T11:35:53.561Z,14.21
2022-12-15T11:37:53.533Z,14.23
2022-12-15T11:39:53.527Z,13.83
2022-12-15T11:41:53.570Z,13.96
2022-12-15T11:45:01.068Z,13.91
2022-12-15T11:47:00.925Z,14.11
2022-12-15T11:49:00.913Z,13.82
2022-12-15T11:51:00.914Z,13.74
2022-12-15T11:53:00.953Z,13.58
2022-12-15T11:55:00.931Z,13.77
2022-12-15T11:57:00.963Z,14.14
2022-12-15T12:00:01.804Z,14.34
2022-12-15T12:02:03.407Z,14.45
2022-12-15T12:04:01.751Z,14.45
2022-12-15T12:06:01.842Z,14.43
2022-12-15T12:08:01.810Z,14.28
2022-12-15T12:10:01.759Z,13.7
2022-12-15T12:12:01.909Z,14.27
2022-12-15T12:15:18.573Z,14.38
2022-12-15T12:17:18.602Z,14.15
2022-12-15T12:19:18.583Z,14.38
2022-12-15T12:21:18.544Z,14.35
2022-12-15T12:23:18.680Z,13.81
2022-12-15T12:25:19.083Z,13.88
2022-12-15T12:27:18.547Z,13.25
2022-12-15T12:30:17.330Z,13.69
2022-12-15T12:32:17.216Z,13.85
2022-12-15T12:34:17.282Z,13.95
2022-12-15T12:36:17.225Z,13.83
2022-12-15T12:38:17.245Z,13.71
2022-12-15T12:40:17.424Z,14.02
2022-12-15T12:42:17.205Z,14.04
2022-12-15T12:45:34.476Z,14.24
2022-12-15T12:47:34.536Z,14.34
2022-12-15T12:49:34.552Z,14.38
2022-12-15T12:51:34.472Z,14.45
2022-12-15T12:53:34.832Z,14.34
2022-12-15T12:55:34.476Z,14.17
2022-12-15T12:57:34.502Z,14.31
2022-12-15T13:00:56.951Z,14.13
2022-12-15T13:02:55.947Z,13.69
2022-12-15T13:04:55.955Z,13.71
2022-12-15T13:06:55.885Z,14.05
2022-12-15T13:08:55.866Z,13.92
2022-12-15T13:10:55.914Z,13.7
2022-12-15T13:12:55.908Z,13.5
2022-12-15T13:16:13.780Z,13.35
2022-12-15T13:18:13.718Z,13.78
2022-12-15T13:20:13.950Z,13.95
2022-12-15T13:22:13.722Z,13.96
2022-12-15T13:24:13.717Z,14.27
2022-12-15T13:26:13.738Z,14.4
2022-12-15T13:28:13.707Z,14.44
2022-12-15T13:30:47.134Z,14.44
2022-12-15T13:32:47.156Z,14.37
2022-12-15T13:34:47.127Z,14.42
2022-12-15T13:36:52.699Z,14.4
2022-12-15T13:38:47.041Z,14.37
2022-12-15T13:40:47.048Z,14.26
2022-12-15T13:42:54.718Z,14.24
2022-12-15T13:45:48.779Z,14.26
2022-12-15T13:47:46.246Z,14.15
2022-12-15T13:49:52.051Z,14.13
2022-12-15T13:51:49.718Z,13.98
2022-12-15T13:53:49.671Z,13.87
2022-12-15T13:55:46.225Z,13.71
2022-12-15T13:57:46.225Z,13.73
2022-12-15T14:01:35.788Z,13.28
2022-12-15T14:03:36.175Z,13.33
2022-12-15T14:05:35.731Z,13.34
2022-12-15T14:07:35.814Z,13.32
2022-12-15T14:09:35.780Z,13.35
2022-12-15T14:11:52.302Z,13.33
2022-12-15T14:13:36.261Z,13.32
2022-12-15T14:15:57.804Z,13.35
2022-12-15T14:17:57.756Z,13.31
2022-12-15T14:19:57.772Z,13.26
2022-12-15T14:21:57.848Z,13.11
2022-12-15T14:24:28.715Z,12.93
2022-12-15T14:25:57.866Z,13.12
2022-12-15T14:27:57.764Z,13.02
2022-12-15T14:30:00.765Z,12.9
2022-12-15T14:31:49.156Z,12.81
2022-12-15T14:33:50.526Z,12.58
2022-12-15T14:35:49.716Z,12.57
2022-12-15T14:37:49.059Z,12.5
2022-12-15T14:39:50.080Z,12.5
2022-12-15T14:41:49.158Z,12.42
2022-12-15T14:43:49.038Z,12.32
2022-12-15T14:46:18.523Z,12.27
2022-12-15T14:48:40.340Z,12.2
2022-12-15T14:50:23.291Z,12.22
2022-12-15T14:52:18.477Z,12.17
2022-12-15T14:54:18.488Z,12.02
2022-12-15T14:56:21.414Z,11.9
2022-12-15T14:58:18.476Z,11.97
2022-12-15T15:00:18.502Z,11.94
2022-12-15T15:01:53.162Z,11.83
2022-12-15T15:03:08.366Z,13.51
2022-12-15T15:03:49.354Z,11.84
2022-12-15T15:05:49.432Z,11.82
2022-12-15T15:07:49.325Z,11.73
2022-12-15T15:09:49.314Z,11.69
2022-12-15T15:11:49.327Z,11.54
2022-12-15T15:13:49.345Z,11.4
2022-12-15T15:17:27.581Z,11.38
2022-12-15T15:19:27.583Z,11.39
2022-12-15T15:21:28.056Z,11.38
2022-12-15T15:23:27.740Z,11.32
2022-12-15T15:25:27.704Z,11.33
2022-12-15T15:27:27.620Z,11.31
2022-12-15T15:29:27.611Z,11.36
2022-12-15T15:32:39.735Z,11.3
2022-12-15T15:34:39.756Z,11.16
2022-12-15T15:36:39.737Z,11.13
2022-12-15T15:38:39.734Z,11.08
2022-12-15T15:40:39.724Z,11
2022-12-15T15:42:39.760Z,10.9
2022-12-15T15:44:39.779Z,10.89
2022-12-15T15:47:56.000Z,10.88
2022-12-15T15:49:53.373Z,10.94
2022-12-15T15:51:53.511Z,10.88
2022-12-15T15:53:53.397Z,10.69
2022-12-15T15:55:53.366Z,10.73
2022-12-15T15:57:53.432Z,10.83
2022-12-15T15:59:53.478Z,10.77
2022-12-15T16:02:28.530Z,10.68
2022-12-15T16:04:28.324Z,10.56
2022-12-15T16:06:28.299Z,10.33
2022-12-15T16:08:28.743Z,10.3
2022-12-15T16:10:28.279Z,10.25
2022-12-15T16:12:28.338Z,10.12
2022-12-15T16:14:28.289Z,10.18
2022-12-15T16:18:03.782Z,10.27
2022-12-15T16:20:03.711Z,10.24
2022-12-15T16:22:03.673Z,10.19
2022-12-15T16:24:03.692Z,10.06
2022-12-15T16:26:03.694Z,10.1
2022-12-15T16:28:03.661Z,10.14
2022-12-15T16:30:03.728Z,10.11
2022-12-15T16:33:15.025Z,10.12
2022-12-15T16:35:15.254Z,10.15
2022-12-15T16:37:14.967Z,10.07
2022-12-15T16:39:14.980Z,10
2022-12-15T16:41:14.946Z,9.96
2022-12-15T16:43:14.959Z,9.91
2022-12-15T16:45:14.976Z,9.94
2022-12-15T16:48:03.727Z,9.99
2022-12-15T16:50:03.718Z,10.03
2022-12-15T16:52:03.677Z,9.99
2022-12-15T16:54:03.667Z,10.01
2022-12-15T16:56:03.728Z,9.96
2022-12-15T16:58:03.639Z,9.97
2022-12-15T17:00:03.647Z,9.91
2022-12-15T17:03:01.010Z,9.85
2022-12-15T17:05:00.893Z,9.83
2022-12-15T17:07:01.019Z,9.85
2022-12-15T17:09:00.890Z,9.69
2022-12-15T17:11:00.855Z,9.8
2022-12-15T17:13:01.072Z,9.81
2022-12-15T17:15:00.877Z,9.77
2022-12-15T17:18:05.981Z,9.65
2022-12-15T17:22:05.965Z,9.63
2022-12-15T17:24:05.982Z,9.7
2022-12-15T17:26:30.148Z,9.76
2022-12-15T17:28:05.974Z,9.65
2022-12-15T17:30:06.025Z,9.54
2022-12-15T17:33:25.496Z,9.75
2022-12-15T17:35:25.471Z,9.7
2022-12-15T17:37:28.056Z,9.67
2022-12-15T17:39:25.536Z,9.63
2022-12-15T17:41:50.606Z,9.53
2022-12-15T17:43:28.236Z,9.7
2022-12-15T17:45:25.599Z,9.6
2022-12-15T17:48:44.506Z,9.63
2022-12-15T17:50:44.547Z,9.41
2022-12-15T17:52:44.618Z,9.53
2022-12-15T17:54:44.490Z,9.54
2022-12-15T17:56:44.529Z,9.54
2022-12-15T17:58:44.484Z,9.56
2022-12-15T18:00:48.987Z,9.48
2022-12-15T18:04:01.309Z,9.36
2022-12-15T18:06:01.214Z,9.32
2022-12-15T18:08:01.195Z,9.29
2022-12-15T18:10:01.275Z,9.3
2022-12-15T18:12:01.096Z,9.31
2022-12-15T18:14:01.367Z,9.22
2022-12-15T18:16:01.322Z,9.22
2022-12-15T18:18:41.453Z,9.16
2022-12-15T18:20:41.755Z,8.95
2022-12-15T18:22:41.634Z,9.19
2022-12-15T18:24:41.622Z,9.25
2022-12-15T18:26:41.469Z,9.21
2022-12-15T18:28:41.469Z,9.24
2022-12-15T18:30:41.540Z,9.16
2022-12-15T18:34:12.477Z,9.08
2022-12-15T18:36:12.347Z,9.09
2022-12-15T18:38:12.470Z,9.01
2022-12-15T18:40:12.447Z,9.13
2022-12-15T18:42:12.376Z,9.19
2022-12-15T18:44:12.591Z,9.14
2022-12-15T18:46:12.361Z,9.05
2022-12-15T18:49:47.347Z,9.06
2022-12-15T18:51:47.310Z,9.05
2022-12-15T18:53:47.367Z,9.09
2022-12-15T18:55:47.496Z,9.06
2022-12-15T18:57:47.370Z,9.01
2022-12-15T18:59:47.335Z,9.1
2022-12-15T19:01:47.476Z,9.07
2022-12-15T19:04:14.972Z,9.09
2022-12-15T19:06:15.193Z,9.1
2022-12-15T19:08:14.963Z,9.07
2022-12-15T19:10:14.997Z,9.08
2022-12-15T19:12:15.038Z,8.97
2022-12-15T19:14:15.036Z,8.95
2022-12-15T19:16:15.022Z,9.07
2022-12-15T19:19:50.154Z,9.17
2022-12-15T19:21:50.123Z,9.1
2022-12-15T19:23:50.396Z,9.06
2022-12-15T19:25:50.109Z,9.04
2022-12-15T19:27:50.263Z,9.03
2022-12-15T19:29:50.158Z,9.02
2022-12-15T19:31:50.393Z,8.94
2022-12-15T19:34:53.866Z,8.79
2022-12-15T19:36:53.926Z,8.75
2022-12-15T19:38:53.861Z,8.78
2022-12-15T19:40:53.849Z,8.68
2022-12-15T19:42:55.592Z,8.76
2022-12-15T19:44:53.826Z,8.77
2022-12-15T19:46:53.871Z,8.88
2022-12-15T19:49:35.163Z,8.78
2022-12-15T19:51:35.486Z,8.78
2022-12-15T19:53:35.793Z,8.82
2022-12-15T19:55:34.887Z,8.84
2022-12-15T19:57:34.994Z,8.97
2022-12-15T19:59:34.924Z,8.81
2022-12-15T20:01:35.036Z,8.96
2022-12-15T20:03:35.399Z,8.86
2022-12-15T20:05:04.258Z,8.78
2022-12-15T20:07:04.283Z,8.73
2022-12-15T20:09:04.229Z,8.7
2022-12-15T20:11:04.227Z,8.88
2022-12-15T20:13:04.221Z,9.01
2022-12-15T20:15:04.278Z,9.07
2022-12-15T20:17:04.347Z,9.03
2022-12-15T20:20:22.161Z,8.85
2022-12-15T20:22:22.233Z,8.76
2022-12-15T20:24:22.199Z,8.72
2022-12-15T20:26:22.206Z,8.72
2022-12-15T20:28:22.209Z,8.85
2022-12-15T20:30:22.183Z,8.83
2022-12-15T20:32:22.165Z,8.86
2022-12-15T20:35:26.128Z,8.92
2022-12-15T20:37:26.127Z,8.85
2022-12-15T20:39:26.210Z,8.78
2022-12-15T20:41:26.128Z,8.78
2022-12-15T20:43:26.148Z,8.85
2022-12-15T20:45:26.192Z,8.81
2022-12-15T20:47:26.135Z,8.88
2022-12-15T20:50:46.316Z,8.76
2022-12-15T20:52:46.238Z,8.67
2022-12-15T20:54:46.295Z,8.83
2022-12-15T20:56:46.266Z,8.83
2022-12-15T20:58:46.247Z,8.82
2022-12-15T21:00:46.515Z,8.64
2022-12-15T21:02:46.470Z,8.69
2022-12-15T21:06:11.322Z,8.8
2022-12-15T21:08:11.288Z,8.83
2022-12-15T21:10:11.278Z,8.78
2022-12-15T21:12:11.352Z,8.76
2022-12-15T21:14:11.289Z,8.76
2022-12-15T21:16:11.335Z,8.86
2022-12-15T21:18:51.854Z,8.86
2022-12-15T21:20:56.747Z,8.67
2022-12-15T21:22:56.802Z,8.5
2022-12-15T21:24:56.743Z,8.36
2022-12-15T21:26:56.817Z,8.54
2022-12-15T21:28:56.748Z,8.75
2022-12-15T21:30:56.772Z,8.86
2022-12-15T21:32:56.819Z,8.91
2022-12-15T21:36:25.003Z,8.94
2022-12-15T21:38:25.037Z,8.96
2022-12-15T21:40:25.056Z,8.96
2022-12-15T21:42:25.019Z,8.77
2022-12-15T21:44:25.018Z,8.54
2022-12-15T21:46:27.843Z,8.74
2022-12-15T21:48:25.074Z,8.87
2022-12-15T21:51:39.111Z,8.73
2022-12-15T21:53:39.145Z,8.44
2022-12-15T21:55:39.101Z,8.31
2022-12-15T21:57:39.116Z,8.24
2022-12-15T21:59:39.113Z,8.39
2022-12-15T22:01:39.230Z,8.61
2022-12-15T22:03:39.201Z,8.52
2022-12-15T22:06:35.107Z,8.55
2022-12-15T22:08:35.430Z,8.17
2022-12-15T22:10:35.120Z,7.79
2022-12-15T22:12:35.115Z,8.01
2022-12-15T22:14:35.131Z,8.11
2022-12-15T22:16:35.154Z,8.17
2022-12-15T22:18:35.350Z,8.11
2022-12-15T22:21:54.532Z,8.36
2022-12-15T22:23:54.438Z,8.41
2022-12-15T22:25:54.620Z,8.43
2022-12-15T22:27:54.718Z,8.31
2022-12-15T22:29:54.427Z,8.1
2022-12-15T22:31:55.050Z,8.06
2022-12-15T22:33:54.425Z,8.01
2022-12-15T22:36:48.116Z,7.69
2022-12-15T22:38:48.073Z,7.65
2022-12-15T22:40:48.069Z,7.64
2022-12-15T22:42:48.310Z,7.73
2022-12-15T22:44:48.225Z,7.87
2022-12-15T22:46:48.170Z,7.95
2022-12-15T22:48:48.358Z,7.91
2022-12-15T22:52:20.731Z,7.74
2022-12-15T22:54:20.679Z,7.7
2022-12-15T22:56:20.657Z,7.6
2022-12-15T22:58:20.681Z,7.72
2022-12-15T23:00:20.692Z,7.78
2022-12-15T23:02:20.724Z,7.81
2022-12-15T23:04:20.650Z,7.91
2022-12-15T23:07:36.332Z,7.96
2022-12-15T23:09:36.314Z,7.8
2022-12-15T23:11:36.291Z,7.87
2022-12-15T23:13:36.320Z,8.02
2022-12-15T23:15:36.324Z,8.01
2022-12-15T23:17:36.286Z,8.02
2022-12-15T23:19:36.289Z,8.05
2022-12-15T23:22:45.146Z,8
2022-12-15T23:24:45.161Z,7.92
2022-12-15T23:26:45.119Z,7.9
2022-12-15T23:28:45.130Z,7.98
2022-12-15T23:30:45.109Z,7.98
2022-12-15T23:32:45.130Z,7.99
2022-12-15T23:34:45.112Z,7.93
2022-12-15T23:37:08.045Z,7.73
2022-12-15T23:39:08.072Z,7.63
2022-12-15T23:41:08.096Z,7.56
2022-12-15T23:43:08.040Z,7.52
2022-12-15T23:45:08.077Z,7.64
2022-12-15T23:47:08.038Z,7.46
2022-12-15T23:49:08.024Z,7.39
2022-12-15T23:52:33.883Z,7.04
2022-12-15T23:54:34.122Z,6.98
2022-12-15T23:56:33.839Z,7.09
2022-12-15T23:58:33.824Z,7.19
